Atka, Alaska
Current Conditions -  °F | °C
As of 9:36 PM on Saturday 22 Nov 2014 (Local Time) from PAAK Reporting Station
Broken Clouds Broken Clouds  
Wind Chill: -3°   Ceiling: 4300
Heat Index:   Visibility: 10mi
Dew Point: -1°   Wind: 20mph
Humidity: 75%   Direction: 280°W
Pressure: 29.48"   Gusts: 29mph
Location:  52.19°N, 174.2°W
Report Text: PAAK 230736Z 28017G25KT 10SM FEW027 BKN043 BKN065 03/M01 A2948 RMK AO1
Loading
Personal Weather Stations






























Interactive Weather Map New forecast layout! Learn more

10-Day Weather Forecast

Advertisements
Track Severe Weather on mobile